Time;durP1;ratioP1;P1;durP2;ratioP2;P2;SDS_P1;SDS_P2;PMS_P1;PMS_P2;Temp;Humidity;BMP_temperature;BMP_pressure;BME280_temperature;BME280_humidity;BME280_pressure;Samples;Min_cycle;Max_cycle;Signal;HPM_P1;HPM_P2
2021/11/10 00:00:35;;;;;;;2.40;2.17;;;22.00;54.10;;;;;;5038185;28;20477;-76
2021/11/10 00:03:00;;;;;;;3.13;2.07;;;22.00;54.10;;;;;;5020075;28;20425;-76
2021/11/10 00:05:29;;;;;;;2.20;2.00;;;22.00;54.10;;;;;;5054058;28;20434;-76
2021/11/10 00:08:07;;;;;;;;;;;;;;;;;;;;;
2021/11/10 00:10:35;;;;;;;4.00;1.90;;;22.00;54.10;;;;;;5050527;28;20438;-76
2021/11/10 00:16:10;;;;;;;2.33;2.13;;;22.00;54.20;;;;;;4970749;28;20512;-76
2021/11/10 00:18:38;;;;;;;3.87;2.17;;;22.00;54.20;;;;;;4977103;28;20433;-76
2021/11/10 00:21:07;;;;;;;2.40;2.20;;;22.00;54.20;;;;;;4973763;28;20465;-76
2021/11/10 00:23:33;;;;;;;2.10;1.90;;;22.00;54.20;;;;;;4973496;28;20418;-75
2021/11/10 00:26:00;;;;;;;2.30;2.10;;;22.00;54.20;;;;;;4962467;28;20449;-76
2021/11/10 00:28:26;;;;;;;3.10;2.20;;;22.00;54.20;;;;;;4970315;28;20432;-75
2021/11/10 00:30:52;;;;;;;2.97;2.00;;;22.00;54.20;;;;;;4972327;28;20417;-76
2021/11/10 00:33:23;;;;;;;4.23;2.10;;;22.00;54.20;;;;;;4950740;28;20442;-76
2021/11/10 00:35:51;;;;;;;3.53;2.03;;;22.00;54.20;;;;;;4960610;28;20202;-76
2021/11/10 00:38:20;;;;;;;2.10;1.90;;;22.00;54.20;;;;;;4952491;28;20442;-76
2021/11/10 00:40:55;;;;;;;2.43;1.80;;;22.00;54.20;;;;;;4967082;28;20489;-76
2021/11/10 00:43:21;;;;;;;2.60;2.40;;;22.00;54.20;;;;;;4965205;28;20429;-75
2021/11/10 00:45:50;;;;;;;2.57;2.20;;;22.00;54.20;;;;;;4980778;28;20428;-76
2021/11/10 00:48:15;;;;;;;2.43;1.93;;;22.00;54.20;;;;;;5028640;28;20509;-75
2021/11/10 00:50:43;;;;;;;2.40;2.00;;;22.00;54.20;;;;;;5045699;28;20423;-76
2021/11/10 00:53:09;;;;;;;2.67;1.90;;;22.00;54.20;;;;;;5044550;28;20247;-76
2021/11/10 00:55:36;;;;;;;2.50;2.30;;;22.00;54.20;;;;;;5045687;28;20414;-76
2021/11/10 00:58:05;;;;;;;3.50;2.33;;;22.00;54.10;;;;;;5011026;28;20423;-77
2021/11/10 01:00:34;;;;;;;2.37;2.13;;;22.00;54.10;;;;;;5029914;28;20497;-75
2021/11/10 01:03:05;;;;;;;2.40;2.07;;;22.00;54.20;;;;;;5048747;28;20477;-76
2021/11/10 01:05:36;;;;;;;2.53;1.97;;;22.00;54.10;;;;;;5043856;28;20410;-76
2021/11/10 01:08:06;;;;;;;2.33;1.80;;;22.00;54.20;;;;;;5049460;28;20417;-79
2021/11/10 01:10:32;;;;;;;2.73;2.37;;;22.00;54.20;;;;;;5031925;28;20422;-76
2021/11/10 01:12:58;;;;;;;2.60;2.00;;;22.00;54.20;;;;;;5033388;28;20430;-75
2021/11/10 01:15:25;;;;;;;2.80;2.00;;;21.90;54.10;;;;;;5048027;28;20480;-76
2021/11/10 01:17:50;;;;;;;2.73;2.33;;;22.00;54.70;;;;;;5030315;28;20446;-75
2021/11/10 01:20:22;;;;;;;2.90;2.03;;;22.00;54.20;;;;;;5031481;28;20469;-75
2021/11/10 01:22:53;;;;;;;3.07;2.00;;;22.00;54.20;;;;;;5031919;28;20206;-76
2021/11/10 01:25:22;;;;;;;2.37;1.90;;;22.00;54.20;;;;;;5049128;28;20421;-75
2021/11/10 01:27:47;;;;;;;2.07;1.83;;;22.00;54.20;;;;;;5048704;28;20497;-75
2021/11/10 01:30:13;;;;;;;2.50;2.23;;;21.90;54.10;;;;;;5048550;28;20441;-75
2021/11/10 01:32:40;;;;;;;5.80;2.20;;;21.90;54.10;;;;;;5031588;28;20180;-76
2021/11/10 01:35:06;;;;;;;2.40;2.20;;;21.90;54.10;;;;;;5030987;28;20418;-78
2021/11/10 01:37:32;;;;;;;2.73;1.90;;;21.90;54.10;;;;;;5031871;28;20423;-75
2021/11/10 01:39:57;;;;;;;2.30;1.70;;;21.90;54.10;;;;;;5031058;28;20465;-77
2021/11/10 01:42:27;;;;;;;2.40;2.00;;;21.90;54.10;;;;;;5029745;28;20179;-75
2021/11/10 01:44:53;;;;;;;2.13;1.93;;;21.90;54.20;;;;;;5049546;28;20206;-75
2021/11/10 01:47:19;;;;;;;2.20;1.90;;;21.90;54.20;;;;;;5023503;28;20410;-76
2021/11/10 01:49:45;;;;;;;2.73;2.30;;;21.90;54.20;;;;;;5048704;28;20422;-76
2021/11/10 01:52:11;;;;;;;2.30;2.10;;;21.90;54.20;;;;;;5049266;28;20176;-75
2021/11/10 01:54:39;;;;;;;1.80;1.70;;;21.90;54.20;;;;;;5048437;28;20247;-75
2021/11/10 01:57:06;;;;;;;1.80;1.70;;;21.90;54.20;;;;;;5049125;28;20187;-75
2021/11/10 01:59:38;;;;;;;2.70;1.97;;;21.90;54.20;;;;;;5047028;28;20406;-76
2021/11/10 02:02:06;;;;;;;2.63;2.07;;;21.90;54.20;;;;;;5048550;28;20417;-76
2021/11/10 02:04:34;;;;;;;3.20;2.00;;;21.90;54.20;;;;;;5048416;28;20422;-75
2021/11/10 02:07:00;;;;;;;2.20;2.00;;;21.90;54.20;;;;;;5048844;28;20423;-75
2021/11/10 02:09:26;;;;;;;2.47;2.07;;;21.90;54.20;;;;;;5031200;28;20418;-75
2021/11/10 02:11:54;;;;;;;1.90;1.80;;;21.90;54.20;;;;;;5029095;28;20435;-75
2021/11/10 02:14:22;;;;;;;3.00;2.20;;;21.90;54.20;;;;;;5046871;28;20187;-76
2021/11/10 02:16:49;;;;;;;2.33;2.13;;;21.80;54.10;;;;;;5048189;28;20904;-75
2021/11/10 02:19:15;;;;;;;2.50;2.27;;;21.90;54.20;;;;;;5027704;28;20506;-75
2021/11/10 02:21:43;;;;;;;1.90;1.70;;;21.80;54.20;;;;;;5030107;28;20470;-76
2021/11/10 02:24:09;;;;;;;2.20;2.00;;;21.80;54.10;;;;;;5026900;28;20414;-75
2021/11/10 02:26:35;;;;;;;2.80;2.30;;;21.80;54.20;;;;;;5047768;28;20487;-76
2021/11/10 02:29:00;;;;;;;2.90;1.97;;;21.80;54.20;;;;;;5047796;28;20649;-75
2021/11/10 02:31:33;;;;;;;2.37;1.90;;;21.80;54.30;;;;;;5046494;28;20661;-76
2021/11/10 02:34:03;;;;;;;3.10;2.03;;;21.80;54.20;;;;;;5029141;28;20179;-76
2021/11/10 02:36:31;;;;;;;3.03;1.80;;;21.80;54.20;;;;;;5045428;28;20422;-76
2021/11/10 02:39:00;;;;;;;1.83;1.70;;;21.80;54.20;;;;;;5046454;28;20430;-78
2021/11/10 02:41:27;;;;;;;1.80;1.50;;;21.80;54.20;;;;;;5045836;28;20446;-76
2021/11/10 02:43:53;;;;;;;2.30;1.90;;;21.80;54.20;;;;;;5045764;28;20415;-77
2021/11/10 02:46:19;;;;;;;2.40;2.10;;;21.80;54.20;;;;;;5046801;28;20425;-76
2021/11/10 02:48:45;;;;;;;2.50;2.13;;;21.80;54.20;;;;;;5046623;28;20179;-76
2021/11/10 02:51:10;;;;;;;2.47;2.10;;;21.80;54.20;;;;;;5046419;28;20185;-77
2021/11/10 02:53:36;;;;;;;2.30;1.90;;;21.80;54.20;;;;;;5045495;28;20191;-76
2021/11/10 02:56:02;;;;;;;3.03;2.73;;;21.80;54.20;;;;;;5028922;28;20187;-76
2021/11/10 02:58:32;;;;;;;3.73;2.57;;;21.80;54.20;;;;;;5045130;28;20180;-76
2021/11/10 03:00:58;;;;;;;2.27;2.07;;;21.80;54.20;;;;;;5028416;28;20536;-76
2021/11/10 03:03:24;;;;;;;2.17;1.97;;;21.80;54.20;;;;;;5029810;28;20419;-75
2021/11/10 03:05:52;;;;;;;1.70;1.57;;;21.80;54.10;;;;;;5029037;28;20411;-76
2021/11/10 03:08:19;;;;;;;2.10;1.90;;;21.80;54.10;;;;;;5047031;28;20168;-75
2021/11/10 03:10:46;;;;;;;1.87;1.60;;;21.80;54.20;;;;;;5027091;28;20451;-77
2021/11/10 03:13:13;;;;;;;2.33;1.93;;;21.80;54.20;;;;;;5046851;28;20506;-77
2021/11/10 03:15:40;;;;;;;2.30;2.00;;;21.80;54.20;;;;;;5029051;28;20423;-77
2021/11/10 03:18:06;;;;;;;2.30;2.07;;;21.80;54.20;;;;;;5046205;28;20422;-76
2021/11/10 03:20:32;;;;;;;2.00;1.70;;;21.80;54.20;;;;;;5046309;28;20458;-76
2021/11/10 03:22:59;;;;;;;2.30;2.10;;;21.80;54.20;;;;;;5029108;28;20422;-76
2021/11/10 03:25:25;;;;;;;1.93;1.77;;;21.80;54.20;;;;;;5045851;28;20179;-77
2021/11/10 03:27:50;;;;;;;1.67;1.53;;;21.80;54.20;;;;;;5047343;28;20417;-77
2021/11/10 03:30:16;;;;;;;1.70;1.60;;;21.80;54.20;;;;;;5045240;28;20437;-76
2021/11/10 03:32:42;;;;;;;1.80;1.53;;;21.80;54.20;;;;;;5046674;28;20568;-77
2021/11/10 03:35:09;;;;;;;1.93;1.73;;;21.80;54.20;;;;;;5041369;28;20426;-76
2021/11/10 03:37:35;;;;;;;3.40;1.77;;;21.80;54.20;;;;;;5027707;28;20188;-77
2021/11/10 03:40:04;;;;;;;2.00;1.63;;;21.80;54.20;;;;;;5029166;28;20469;-76
2021/11/10 03:42:30;;;;;;;3.10;2.17;;;21.80;54.20;;;;;;5046348;28;20441;-76
2021/11/10 03:44:55;;;;;;;2.03;1.83;;;21.80;54.20;;;;;;5046081;28;20423;-77
2021/11/10 03:47:21;;;;;;;2.17;1.60;;;21.80;54.20;;;;;;5046318;28;20210;-77
2021/11/10 03:49:47;;;;;;;2.27;1.97;;;21.80;54.20;;;;;;5045847;28;20222;-76
2021/11/10 03:52:14;;;;;;;2.50;2.10;;;21.80;54.20;;;;;;5028811;28;20556;-77
2021/11/10 03:54:41;;;;;;;2.73;1.90;;;21.80;54.20;;;;;;5039287;28;20198;-76
2021/11/10 03:57:08;;;;;;;1.93;1.80;;;21.80;54.30;;;;;;5022348;28;20418;-75
2021/11/10 03:59:34;;;;;;;2.70;1.73;;;21.80;54.30;;;;;;5045349;28;20903;-76
2021/11/10 04:02:00;;;;;;;2.10;1.90;;;21.70;54.20;;;;;;5045301;28;20465;-76
2021/11/10 04:04:26;;;;;;;2.50;2.07;;;21.70;54.20;;;;;;5038087;28;20407;-75
2021/11/10 04:06:51;;;;;;;2.47;2.27;;;21.70;54.20;;;;;;5045695;28;20190;-76
2021/11/10 04:09:17;;;;;;;1.80;1.50;;;21.70;54.20;;;;;;5046160;28;20175;-76
2021/11/10 04:11:43;;;;;;;1.97;1.80;;;21.70;54.20;;;;;;5027500;28;20187;-77
2021/11/10 04:14:10;;;;;;;1.70;1.60;;;21.70;54.20;;;;;;5028386;28;20242;-75
2021/11/10 04:16:36;;;;;;;2.60;2.37;;;21.70;54.20;;;;;;5046083;28;20183;-76
2021/11/10 04:19:01;;;;;;;2.63;2.00;;;21.70;54.20;;;;;;5045195;28;20450;-76
2021/11/10 04:21:27;;;;;;;2.43;1.67;;;21.70;54.20;;;;;;5027242;28;20217;-76
2021/11/10 04:23:55;;;;;;;2.30;2.10;;;21.70;54.20;;;;;;5044170;28;20172;-75
2021/11/10 04:26:22;;;;;;;1.63;1.53;;;21.70;54.20;;;;;;5045429;28;20418;-75
2021/11/10 04:28:49;;;;;;;2.83;1.67;;;21.70;54.20;;;;;;5027886;28;20476;-76
2021/11/10 04:31:14;;;;;;;1.97;1.77;;;21.80;54.30;;;;;;5028175;28;20418;-75
2021/11/10 04:33:42;;;;;;;2.10;1.90;;;21.80;54.30;;;;;;5046156;28;20509;-76
2021/11/10 04:36:08;;;;;;;2.00;1.80;;;21.80;54.20;;;;;;5046033;28;20667;-76
2021/11/10 04:38:33;;;;;;;1.70;1.40;;;21.70;54.20;;;;;;5049893;28;20454;-75
2021/11/10 04:40:59;;;;;;;2.40;2.20;;;21.70;54.20;;;;;;5049881;28;20206;-75
2021/11/10 04:43:25;;;;;;;2.70;1.70;;;21.80;54.20;;;;;;5032238;28;20180;-75
2021/11/10 04:46:04;;;;;;;2.23;1.80;;;21.70;54.10;;;;;;5049370;28;20968;-76
2021/11/10 04:48:30;;;;;;;2.00;1.80;;;21.70;54.20;;;;;;5031624;28;20198;-75
2021/11/10 04:50:57;;;;;;;2.00;1.67;;;21.70;54.20;;;;;;5049618;28;20484;-77
2021/11/10 04:53:22;;;;;;;3.57;2.47;;;21.70;54.20;;;;;;5035545;28;20180;-75
2021/11/10 04:55:49;;;;;;;2.17;1.50;;;21.70;54.20;;;;;;5048703;28;20440;-75
2021/11/10 04:58:15;;;;;;;2.57;1.57;;;21.70;54.20;;;;;;5049121;28;20195;-76
2021/11/10 05:00:41;;;;;;;1.80;1.70;;;21.70;54.20;;;;;;5049305;28;20449;-77
2021/11/10 05:03:07;;;;;;;1.60;1.30;;;21.70;54.20;;;;;;5048620;28;20171;-75
2021/11/10 05:05:33;;;;;;;2.10;1.73;;;21.70;54.20;;;;;;5048473;28;20450;-75
2021/11/10 05:07:59;;;;;;;1.67;1.57;;;21.70;54.20;;;;;;5049209;28;20413;-76
2021/11/10 05:10:25;;;;;;;2.10;1.70;;;21.70;54.20;;;;;;5048812;28;20493;-76
2021/11/10 05:12:50;;;;;;;2.20;2.00;;;21.70;54.20;;;;;;5048904;28;20286;-76
2021/11/10 05:15:16;;;;;;;1.83;1.50;;;21.70;54.20;;;;;;5049130;28;20263;-78
2021/11/10 05:17:42;;;;;;;1.97;1.63;;;21.70;54.20;;;;;;5032086;28;20202;-76
2021/11/10 05:20:08;;;;;;;2.30;1.60;;;21.70;54.20;;;;;;5048863;28;20453;-76
2021/11/10 05:22:34;;;;;;;1.73;1.63;;;21.70;54.20;;;;;;5032250;28;20425;-76
2021/11/10 05:25:00;;;;;;;1.47;1.33;;;21.70;54.20;;;;;;5011879;28;20494;-77
2021/11/10 05:27:25;;;;;;;3.10;1.80;;;21.70;54.20;;;;;;5047074;28;20180;-77
2021/11/10 05:29:51;;;;;;;1.80;1.67;;;21.70;54.30;;;;;;5027531;28;20198;-76
2021/11/10 05:32:17;;;;;;;2.30;2.00;;;21.60;54.20;;;;;;5041385;28;20207;-85
2021/11/10 05:34:43;;;;;;;2.13;1.90;;;21.60;54.20;;;;;;5049454;28;20188;-77
2021/11/10 05:37:08;;;;;;;1.70;1.40;;;21.60;54.20;;;;;;5048753;28;20199;-76
2021/11/10 05:39:34;;;;;;;2.00;1.60;;;21.60;54.20;;;;;;5047777;28;20532;-76
2021/11/10 05:42:00;;;;;;;1.83;1.73;;;21.60;54.20;;;;;;5047807;28;20179;-76
2021/11/10 05:44:25;;;;;;;2.17;1.97;;;21.60;54.20;;;;;;5047561;28;20230;-75
2021/11/10 05:46:51;;;;;;;2.03;1.80;;;21.60;54.10;;;;;;5047791;28;20200;-76
2021/11/10 05:49:17;;;;;;;2.07;1.80;;;21.60;54.10;;;;;;5028535;28;20177;-76
2021/11/10 05:51:42;;;;;;;2.00;1.80;;;21.70;54.20;;;;;;5031237;28;20186;-76
2021/11/10 05:54:08;;;;;;;2.00;1.80;;;21.60;54.10;;;;;;5047191;28;20534;-76
2021/11/10 05:56:36;;;;;;;2.10;1.90;;;21.70;54.20;;;;;;5048182;28;20191;-76
2021/11/10 05:59:03;;;;;;;2.10;1.80;;;21.70;54.20;;;;;;5048006;28;20180;-76
2021/11/10 06:01:29;;;;;;;1.80;1.60;;;21.70;54.20;;;;;;5029936;28;20476;-77
2021/11/10 06:03:55;;;;;;;1.90;1.50;;;21.70;54.10;;;;;;5034566;28;20485;-77
2021/11/10 06:06:22;;;;;;;1.80;1.60;;;21.70;54.10;;;;;;5029455;28;20438;-78
2021/11/10 06:08:48;;;;;;;1.93;1.73;;;21.70;54.10;;;;;;5048316;28;20448;-76
2021/11/10 06:11:14;;;;;;;1.77;1.57;;;21.70;54.10;;;;;;5047276;28;20434;-77
2021/11/10 06:13:40;;;;;;;2.00;1.60;;;21.70;54.10;;;;;;5047532;28;20188;-76
2021/11/10 06:16:07;;;;;;;2.40;1.97;;;21.80;54.10;;;;;;5030778;28;20191;-75
2021/11/10 06:18:33;;;;;;;1.80;1.70;;;21.80;54.10;;;;;;5030368;28;20430;-75
2021/11/10 06:21:00;;;;;;;1.93;1.73;;;21.80;54.10;;;;;;5027402;28;20478;-76
2021/11/10 06:23:26;;;;;;;2.27;1.53;;;21.80;54.10;;;;;;5019192;28;20431;-76
2021/11/10 06:25:52;;;;;;;2.10;1.90;;;21.80;54.00;;;;;;5011684;28;20409;-76
2021/11/10 06:28:19;;;;;;;3.23;1.50;;;21.80;54.00;;;;;;5028573;28;20407;-75
2021/11/10 06:30:45;;;;;;;1.83;1.63;;;21.80;54.00;;;;;;5028431;28;20411;-75
2021/11/10 06:33:10;;;;;;;2.13;1.93;;;21.80;54.00;;;;;;5010406;28;20428;-76
2021/11/10 06:35:36;;;;;;;1.87;1.53;;;21.80;54.00;;;;;;5011071;28;20890;-75
2021/11/10 06:38:02;;;;;;;2.00;1.57;;;21.80;54.00;;;;;;5028005;28;20192;-75
2021/11/10 06:40:28;;;;;;;1.80;1.60;;;21.80;54.00;;;;;;5028626;28;20192;-75
2021/11/10 06:42:53;;;;;;;2.17;1.80;;;21.80;54.00;;;;;;5010581;28;20423;-75
2021/11/10 06:45:19;;;;;;;2.17;1.40;;;21.80;54.00;;;;;;5028714;28;20168;-75
2021/11/10 06:47:45;;;;;;;2.63;1.67;;;21.80;54.00;;;;;;5010043;28;20235;-76
2021/11/10 06:50:12;;;;;;;3.20;1.97;;;21.80;54.00;;;;;;4994639;28;20230;-76
2021/11/10 06:52:38;;;;;;;2.40;1.90;;;21.80;54.00;;;;;;5011321;28;20183;-75
2021/11/10 06:55:05;;;;;;;2.10;1.50;;;21.80;54.00;;;;;;5027464;28;20415;-75
2021/11/10 06:57:31;;;;;;;2.27;1.50;;;21.80;54.00;;;;;;5010073;28;20422;-75
2021/11/10 06:59:57;;;;;;;2.37;1.70;;;21.80;54.00;;;;;;5028180;28;20542;-75
2021/11/10 07:02:23;;;;;;;4.00;2.30;;;21.80;54.00;;;;;;5026846;28;20416;-75
2021/11/10 07:04:49;;;;;;;3.43;3.13;;;21.80;53.90;;;;;;5030314;28;20408;-75
2021/11/10 07:07:15;;;;;;;2.60;2.00;;;21.80;54.00;;;;;;5036589;28;20403;-76
2021/11/10 07:09:41;;;;;;;1.70;1.60;;;21.80;54.00;;;;;;5036589;28;20176;-75
2021/11/10 07:12:07;;;;;;;3.50;2.20;;;21.80;54.00;;;;;;5037200;28;20475;-75
2021/11/10 07:14:33;;;;;;;2.37;1.90;;;21.80;53.90;;;;;;5035722;28;20411;-77
2021/11/10 07:16:59;;;;;;;2.60;1.50;;;21.90;54.00;;;;;;5036353;28;20434;-76
2021/11/10 07:19:25;;;;;;;3.20;2.00;;;21.80;54.00;;;;;;5019442;28;20419;-76
2021/11/10 07:21:51;;;;;;;1.80;1.60;;;21.80;53.90;;;;;;5019339;28;20227;-77
2021/11/10 07:24:17;;;;;;;2.20;1.77;;;21.90;54.00;;;;;;5035807;28;20195;-75
2021/11/10 07:26:43;;;;;;;2.90;2.63;;;21.90;54.00;;;;;;5035729;28;20173;-76
2021/11/10 07:29:09;;;;;;;2.10;1.80;;;21.90;54.00;;;;;;5035925;28;20424;-77
2021/11/10 07:31:34;;;;;;;2.90;2.17;;;21.90;54.00;;;;;;5018777;28;20415;-76
2021/11/10 07:34:01;;;;;;;2.27;2.00;;;21.90;54.00;;;;;;5018190;28;20180;-76
2021/11/10 07:36:30;;;;;;;2.70;1.87;;;21.90;53.90;;;;;;5034949;28;20180;-76
2021/11/10 07:38:57;;;;;;;3.93;2.00;;;21.90;53.90;;;;;;5035228;28;20443;-76
2021/11/10 07:41:27;;;;;;;4.10;2.23;;;21.90;54.00;;;;;;5017311;28;20519;-76
2021/11/10 07:43:54;;;;;;;4.43;2.20;;;21.90;53.90;;;;;;5035481;28;20446;-76
2021/11/10 07:46:22;;;;;;;4.60;2.17;;;21.90;53.90;;;;;;5017986;28;20439;-77
2021/11/10 07:48:48;;;;;;;2.67;1.93;;;21.90;53.90;;;;;;5035290;28;20418;-76
2021/11/10 07:51:16;;;;;;;2.80;2.17;;;21.90;53.90;;;;;;5018631;28;20419;-76
2021/11/10 07:53:42;;;;;;;3.00;1.93;;;21.90;53.90;;;;;;5035203;28;20411;-76
2021/11/10 07:56:08;;;;;;;2.60;1.87;;;21.90;53.90;;;;;;5018448;28;20423;-76
2021/11/10 07:58:35;;;;;;;4.60;2.63;;;21.90;53.90;;;;;;5035518;28;20418;-76
2021/11/10 08:01:01;;;;;;;2.50;1.80;;;21.90;53.90;;;;;;5035117;28;20202;-76
2021/11/10 08:03:27;;;;;;;3.27;2.97;;;21.90;53.90;;;;;;5036029;28;20391;-76
2021/11/10 08:05:55;;;;;;;2.70;2.20;;;21.90;53.90;;;;;;5035394;28;20420;-76
2021/11/10 08:08:21;;;;;;;3.67;2.53;;;21.90;53.90;;;;;;5035694;28;20168;-76
2021/11/10 08:10:47;;;;;;;3.63;2.10;;;21.90;53.90;;;;;;5018021;28;20481;-76
2021/11/10 08:13:13;;;;;;;4.70;2.60;;;21.90;53.90;;;;;;5039034;28;20232;-76
2021/11/10 08:15:38;;;;;;;3.67;2.47;;;22.00;54.00;;;;;;5022012;28;20247;-76
2021/11/10 08:18:05;;;;;;;4.03;2.23;;;22.00;54.00;;;;;;5021977;28;20430;-76
2021/11/10 08:20:30;;;;;;;3.93;2.37;;;21.90;53.90;;;;;;5021949;28;20223;-75
2021/11/10 08:22:57;;;;;;;3.50;2.70;;;22.00;54.00;;;;;;5039084;28;20395;-75
2021/11/10 08:25:23;;;;;;;3.40;2.17;;;21.90;53.90;;;;;;5039235;28;20199;-76
2021/11/10 08:27:48;;;;;;;4.93;2.77;;;21.90;53.90;;;;;;5039377;28;20407;-76
2021/11/10 08:30:21;;;;;;;3.87;2.40;;;21.90;53.90;;;;;;5038964;28;20187;-75
2021/11/10 08:32:48;;;;;;;4.33;2.33;;;21.90;53.90;;;;;;5039400;28;20172;-74
2021/11/10 08:35:14;;;;;;;3.90;2.20;;;21.90;53.90;;;;;;5039340;28;20473;-77
2021/11/10 08:37:40;;;;;;;4.43;2.47;;;21.90;53.90;;;;;;5038753;28;20481;-75
2021/11/10 08:40:08;;;;;;;2.30;2.00;;;21.90;53.90;;;;;;5037900;28;20439;-74
2021/11/10 08:42:34;;;;;;;4.27;2.43;;;21.90;53.90;;;;;;5055420;28;20172;-74
2021/11/10 08:45:06;;;;;;;4.63;2.43;;;21.90;53.90;;;;;;5042736;28;20397;-76
2021/11/10 08:47:33;;;;;;;7.60;2.93;;;21.90;53.90;;;;;;5042385;28;20398;-77
2021/11/10 08:49:59;;;;;;;4.40;3.10;;;21.90;53.90;;;;;;5043103;28;20485;-76
2021/11/10 08:52:27;;;;;;;4.73;3.13;;;22.00;54.00;;;;;;5059566;28;20469;-76
2021/11/10 08:54:53;;;;;;;4.80;2.43;;;22.00;54.00;;;;;;5060018;28;20394;-76
2021/11/10 08:57:19;;;;;;;5.70;2.70;;;22.00;54.00;;;;;;5061167;28;20434;-76
2021/11/10 08:59:45;;;;;;;5.37;3.40;;;22.00;53.90;;;;;;5060782;28;20434;-75
2021/11/10 09:02:11;;;;;;;5.93;3.50;;;22.00;53.90;;;;;;5061161;28;20179;-76
2021/11/10 09:04:37;;;;;;;4.47;2.63;;;22.00;53.90;;;;;;5060728;28;20408;-76
2021/11/10 09:07:04;;;;;;;3.93;3.23;;;22.00;53.90;;;;;;5060569;28;20386;-76
2021/11/10 09:09:30;;;;;;;5.90;3.17;;;22.00;53.90;;;;;;5043477;28;20188;-75
2021/11/10 09:11:56;;;;;;;6.00;3.30;;;22.00;53.90;;;;;;5042631;28;20438;-76
2021/11/10 09:14:21;;;;;;;3.70;2.60;;;22.00;53.90;;;;;;5060027;28;20170;-75
2021/11/10 09:16:47;;;;;;;5.53;3.10;;;22.00;53.90;;;;;;5043660;28;20160;-75
2021/11/10 09:19:13;;;;;;;3.70;3.00;;;22.00;53.90;;;;;;5061331;28;20156;-75
2021/11/10 09:21:39;;;;;;;3.47;2.43;;;22.00;53.90;;;;;;5059264;28;20203;-75
2021/11/10 09:24:07;;;;;;;7.23;3.20;;;22.00;53.90;;;;;;5041819;28;20422;-76
2021/11/10 09:26:33;;;;;;;5.17;3.37;;;22.10;53.90;;;;;;5060181;28;20410;-76
2021/11/10 09:28:59;;;;;;;7.67;3.27;;;22.10;53.90;;;;;;5059181;28;20450;-77
2021/11/10 09:31:25;;;;;;;5.70;3.30;;;22.10;53.90;;;;;;5060113;28;20462;-75
2021/11/10 09:33:57;;;;;;;5.00;3.23;;;22.10;53.90;;;;;;5052360;28;20187;-78
2021/11/10 09:36:23;;;;;;;3.40;2.73;;;22.10;54.50;;;;;;5060300;28;20416;-73
2021/11/10 09:38:49;;;;;;;3.60;2.97;;;22.10;54.00;;;;;;5059309;28;20438;-76
2021/11/10 09:41:15;;;;;;;4.53;2.97;;;22.10;53.90;;;;;;5051757;28;20468;-76
2021/11/10 09:43:42;;;;;;;3.70;3.03;;;22.10;53.90;;;;;;5060219;28;20221;-76
2021/11/10 09:46:10;;;;;;;4.13;2.80;;;22.10;53.90;;;;;;5057858;28;20410;-76
2021/11/10 09:48:39;;;;;;;3.97;3.40;;;22.10;53.90;;;;;;5057980;28;20425;-77
2021/11/10 09:51:06;;;;;;;3.80;2.70;;;22.10;53.90;;;;;;5041481;28;20418;-75
2021/11/10 09:53:34;;;;;;;4.10;3.00;;;22.10;53.90;;;;;;5038825;28;20477;-74
2021/11/10 09:56:00;;;;;;;6.03;3.40;;;22.10;53.90;;;;;;5058724;28;20501;-75
2021/11/10 09:58:27;;;;;;;4.67;3.17;;;22.10;53.90;;;;;;5040708;28;20446;-77
2021/11/10 10:01:01;;;;;;;3.97;2.97;;;22.10;53.90;;;;;;5039813;28;20496;-78
2021/11/10 10:03:27;;;;;;;4.60;3.17;;;22.10;53.90;;;;;;5057601;28;20413;-76
2021/11/10 10:05:54;;;;;;;3.40;2.80;;;22.10;53.90;;;;;;5055846;28;20434;-76
2021/11/10 10:08:21;;;;;;;5.63;2.83;;;22.10;53.90;;;;;;5053317;28;20442;-76
2021/11/10 10:10:48;;;;;;;6.10;2.97;;;22.10;53.90;;;;;;5055842;28;20413;-76
2021/11/10 10:13:15;;;;;;;3.53;2.90;;;22.10;53.90;;;;;;5054664;28;20482;-76
2021/11/10 10:15:43;;;;;;;3.70;2.50;;;22.10;53.90;;;;;;5035354;28;20496;-76
2021/11/10 10:18:15;;;;;;;5.30;3.37;;;22.10;54.00;;;;;;5054813;28;20536;-76
2021/11/10 10:20:41;;;;;;;3.63;2.73;;;22.10;54.00;;;;;;5057102;28;20445;-76
2021/11/10 10:23:19;;;;;;;4.20;3.80;;;22.10;54.00;;;;;;5037806;28;20407;-78
2021/11/10 10:25:49;;;;;;;4.10;3.07;;;22.20;54.00;;;;;;5056724;28;20406;-77
2021/11/10 10:28:21;;;;;;;3.40;2.70;;;22.20;54.00;;;;;;5057243;28;20414;-77
2021/11/10 10:30:53;;;;;;;3.70;2.57;;;22.10;54.00;;;;;;5037681;28;20423;-75
2021/11/10 10:33:25;;;;;;;3.87;2.63;;;22.20;54.00;;;;;;5057149;28;20445;-76
2021/11/10 10:35:51;;;;;;;4.50;3.00;;;22.10;54.00;;;;;;5045780;28;20430;-76
2021/11/10 10:38:29;;;;;;;5.10;3.10;;;22.20;54.10;;;;;;5057192;28;20477;-76
2021/11/10 10:40:59;;;;;;;4.33;2.80;;;22.20;54.10;;;;;;5056770;28;20803;-76
2021/11/10 10:43:26;;;;;;;3.83;2.93;;;22.20;54.10;;;;;;5057666;28;20445;-76
2021/11/10 10:45:54;;;;;;;3.80;3.20;;;22.10;54.00;;;;;;5038805;28;20446;-76
2021/11/10 10:48:23;;;;;;;4.50;2.90;;;22.20;54.10;;;;;;5021840;28;20829;-77
2021/11/10 10:50:57;;;;;;;6.03;3.50;;;22.20;54.00;;;;;;5058088;28;20488;-76
2021/11/10 10:53:35;;;;;;;3.87;3.20;;;22.20;54.60;;;;;;5056643;28;20412;-74
2021/11/10 10:56:21;;;;;;;5.67;3.00;;;22.20;54.00;;;;;;5053574;28;20410;-74
2021/11/10 10:58:49;;;;;;;5.27;3.43;;;22.20;54.00;;;;;;5032659;28;20482;-74
2021/11/10 11:01:24;;;;;;;3.10;2.67;;;22.20;54.10;;;;;;5053919;28;20454;-75
2021/11/10 11:03:59;;;;;;;4.77;2.37;;;22.20;54.00;;;;;;5053987;28;20456;-74
2021/11/10 11:06:37;;;;;;;7.50;2.87;;;22.20;54.10;;;;;;5035319;28;20438;-74
2021/11/10 11:09:29;;;;;;;4.47;3.10;;;22.20;54.00;;;;;;5055436;28;20425;-76
2021/11/10 11:12:18;;;;;;;4.63;2.70;;;22.20;54.60;;;;;;5032375;28;20426;-76
2021/11/10 11:14:49;;;;;;;4.40;2.87;;;22.20;54.10;;;;;;5048632;28;20426;-73
2021/11/10 11:17:18;;;;;;;5.67;3.30;;;22.20;54.10;;;;;;5052916;28;20417;-77
2021/11/10 11:20:00;;;;;;;5.80;3.20;;;22.20;54.10;;;;;;5052520;28;20421;-75
2021/11/10 11:22:31;;;;;;;5.60;3.13;;;22.20;54.10;;;;;;5049196;28;20419;-74
2021/11/10 11:25:07;;;;;;;3.23;2.50;;;22.20;54.10;;;;;;5048598;28;20939;-75
2021/11/10 11:27:33;;;;;;;3.50;2.93;;;22.20;54.10;;;;;;5034619;28;20430;-76
2021/11/10 11:30:07;;;;;;;4.00;2.87;;;22.20;54.10;;;;;;5032643;28;20936;-78
2021/11/10 11:32:36;;;;;;;4.30;2.90;;;22.20;54.00;;;;;;5033183;28;20180;-76
2021/11/10 11:35:17;;;;;;;4.90;3.07;;;22.20;54.00;;;;;;5035073;28;20400;-73
2021/11/10 11:37:43;;;;;;;3.80;3.07;;;22.20;54.00;;;;;;5037660;28;20426;-75
2021/11/10 11:40:12;;;;;;;4.40;3.00;;;22.20;54.00;;;;;;5047604;28;20445;-76
2021/11/10 11:42:38;;;;;;;4.23;2.90;;;22.20;54.00;;;;;;5038372;28;20206;-77
2021/11/10 11:45:06;;;;;;;3.50;3.00;;;22.20;54.00;;;;;;5054612;28;20406;-76
2021/11/10 11:47:32;;;;;;;6.27;3.33;;;22.20;54.00;;;;;;5053620;28;20414;-76
2021/11/10 11:50:03;;;;;;;4.20;3.47;;;22.20;54.00;;;;;;5033152;28;20442;-76
2021/11/10 11:52:33;;;;;;;4.30;3.43;;;22.20;54.00;;;;;;5054453;28;20183;-76
2021/11/10 11:55:23;;;;;;;8.40;3.40;;;22.20;54.00;;;;;;5037357;28;20407;-75
2021/11/10 11:58:02;;;;;;;5.10;3.80;;;22.20;54.00;;;;;;5023762;28;20407;-75
2021/11/10 12:00:50;;;;;;;4.10;3.00;;;22.20;54.00;;;;;;5053616;28;20453;-76
2021/11/10 12:03:23;;;;;;;3.40;2.90;;;22.20;54.00;;;;;;5052450;28;20536;-77
2021/11/10 12:06:09;;;;;;;4.13;3.00;;;22.20;54.10;;;;;;5034390;28;20774;-76
2021/11/10 12:08:44;;;;;;;4.37;3.10;;;22.20;54.00;;;;;;5034156;28;20486;-77
2021/11/10 12:11:16;;;;;;;4.53;3.07;;;22.20;54.10;;;;;;5035667;28;20438;-76
2021/11/10 12:14:19;;;;;;;3.70;2.53;;;22.20;54.10;;;;;;5029117;28;20442;-76
2021/11/10 12:16:48;;;;;;;5.13;3.20;;;22.20;54.00;;;;;;5050291;28;20426;-76
2021/11/10 12:19:28;;;;;;;4.37;3.07;;;22.10;54.10;;;;;;5052084;28;20444;-75
2021/11/10 12:22:15;;;;;;;3.73;2.70;;;22.10;54.00;;;;;;5034997;28;20457;-76
2021/11/10 12:24:53;;;;;;;5.17;3.57;;;22.20;54.10;;;;;;5050254;28;20434;-76
2021/11/10 12:27:31;;;;;;;5.13;3.27;;;22.10;54.60;;;;;;5048905;28;20493;-76
2021/11/10 12:29:57;;;;;;;5.93;4.90;;;22.10;54.00;;;;;;5047608;28;20414;-76
2021/11/10 12:32:50;;;;;;;4.60;2.83;;;22.10;54.10;;;;;;5046652;28;20446;-76
2021/11/10 12:35:23;;;;;;;3.60;3.10;;;22.20;54.10;;;;;;5034201;28;20486;-76
2021/11/10 12:37:53;;;;;;;4.70;3.03;;;22.10;54.10;;;;;;5028928;28;20766;-77
2021/11/10 12:40:24;;;;;;;3.67;2.60;;;22.10;54.10;;;;;;5021171;28;20457;-76
2021/11/10 12:42:59;;;;;;;4.13;3.73;;;22.10;54.00;;;;;;5045874;28;20432;-76
2021/11/10 12:45:27;;;;;;;5.10;3.30;;;22.10;54.00;;;;;;5045751;28;20413;-75
2021/11/10 12:47:53;;;;;;;3.40;3.10;;;22.10;54.00;;;;;;5045667;28;20418;-75
2021/11/10 12:50:37;;;;;;;4.73;3.30;;;22.10;54.00;;;;;;5028848;28;20419;-74
2021/11/10 12:53:14;;;;;;;4.07;3.50;;;22.10;54.00;;;;;;5030441;28;20515;-75
2021/11/10 12:55:56;;;;;;;4.27;2.90;;;22.10;54.10;;;;;;5048430;28;20438;-75